sensor_id;sensor_type;location;lat;lon;timestamp;P1;durP1;ratioP1;P2;durP2;ratioP2
10074;SDS011;5076;42.680;23.288;2022-07-19T00:00:05;2.10;;;1.90;;
10074;SDS011;5076;42.680;23.288;2022-07-19T00:02:34;4.17;;;2.13;;
10074;SDS011;5076;42.680;23.288;2022-07-19T00:05:00;20.97;;;16.37;;
10074;SDS011;5076;42.680;23.288;2022-07-19T00:07:28;32.83;;;24.50;;
10074;SDS011;5076;42.680;23.288;2022-07-19T00:09:55;48.20;;;31.07;;
10074;SDS011;5076;42.680;23.288;2022-07-19T00:12:21;32.67;;;23.43;;
10074;SDS011;5076;42.680;23.288;2022-07-19T00:14:48;21.27;;;16.57;;
10074;SDS011;5076;42.680;23.288;2022-07-19T00:17:14;29.60;;;22.33;;
10074;SDS011;5076;42.680;23.288;2022-07-19T00:19:41;13.73;;;9.93;;
10074;SDS011;5076;42.680;23.288;2022-07-19T00:22:08;11.27;;;7.57;;
10074;SDS011;5076;42.680;23.288;2022-07-19T00:24:36;3.40;;;2.23;;
10074;SDS011;5076;42.680;23.288;2022-07-19T00:27:02;2.50;;;2.30;;
10074;SDS011;5076;42.680;23.288;2022-07-19T00:29:29;2.43;;;1.70;;
10074;SDS011;5076;42.680;23.288;2022-07-19T00:31:55;4.43;;;2.00;;
10074;SDS011;5076;42.680;23.288;2022-07-19T00:34:22;2.50;;;1.70;;
10074;SDS011;5076;42.680;23.288;2022-07-19T00:36:49;4.80;;;2.10;;
10074;SDS011;5076;42.680;23.288;2022-07-19T00:39:15;3.13;;;1.90;;
10074;SDS011;5076;42.680;23.288;2022-07-19T00:41:43;2.00;;;1.80;;
10074;SDS011;5076;42.680;23.288;2022-07-19T00:44:10;4.63;;;2.10;;
10074;SDS011;5076;42.680;23.288;2022-07-19T00:46:37;2.17;;;1.90;;
10074;SDS011;5076;42.680;23.288;2022-07-19T00:49:04;4.57;;;2.00;;
10074;SDS011;5076;42.680;23.288;2022-07-19T00:51:31;2.00;;;1.80;;
10074;SDS011;5076;42.680;23.288;2022-07-19T00:53:59;5.03;;;2.03;;
10074;SDS011;5076;42.680;23.288;2022-07-19T00:56:26;2.93;;;1.93;;
10074;SDS011;5076;42.680;23.288;2022-07-19T00:58:55;4.17;;;1.80;;
10074;SDS011;5076;42.680;23.288;2022-07-19T01:01:21;2.53;;;2.10;;
10074;SDS011;5076;42.680;23.288;2022-07-19T01:03:48;2.93;;;1.70;;
10074;SDS011;5076;42.680;23.288;2022-07-19T01:06:15;3.97;;;2.10;;
10074;SDS011;5076;42.680;23.288;2022-07-19T01:08:42;2.90;;;1.90;;
10074;SDS011;5076;42.680;23.288;2022-07-19T01:11:08;2.67;;;1.93;;
10074;SDS011;5076;42.680;23.288;2022-07-19T01:13:35;2.47;;;1.63;;
10074;SDS011;5076;42.680;23.288;2022-07-19T01:16:03;3.43;;;1.87;;
10074;SDS011;5076;42.680;23.288;2022-07-19T01:18:30;2.33;;;1.60;;
10074;SDS011;5076;42.680;23.288;2022-07-19T01:20:57;3.80;;;1.77;;
10074;SDS011;5076;42.680;23.288;2022-07-19T01:23:25;1.77;;;1.47;;
10074;SDS011;5076;42.680;23.288;2022-07-19T01:25:51;3.50;;;1.60;;
10074;SDS011;5076;42.680;23.288;2022-07-19T01:28:18;4.43;;;1.53;;
10074;SDS011;5076;42.680;23.288;2022-07-19T01:30:45;2.53;;;1.53;;
10074;SDS011;5076;42.680;23.288;2022-07-19T01:33:11;1.93;;;1.50;;
10074;SDS011;5076;42.680;23.288;2022-07-19T01:35:38;2.53;;;1.20;;
10074;SDS011;5076;42.680;23.288;2022-07-19T01:38:04;1.43;;;1.33;;
10074;SDS011;5076;42.680;23.288;2022-07-19T01:40:32;2.40;;;1.50;;
10074;SDS011;5076;42.680;23.288;2022-07-19T01:42:59;1.43;;;1.30;;
10074;SDS011;5076;42.680;23.288;2022-07-19T01:45:26;4.97;;;1.90;;
10074;SDS011;5076;42.680;23.288;2022-07-19T01:47:53;1.87;;;1.50;;
10074;SDS011;5076;42.680;23.288;2022-07-19T01:50:20;2.50;;;1.50;;
10074;SDS011;5076;42.680;23.288;2022-07-19T01:52:46;1.50;;;1.40;;
10074;SDS011;5076;42.680;23.288;2022-07-19T01:55:13;4.27;;;1.70;;
10074;SDS011;5076;42.680;23.288;2022-07-19T01:57:41;4.20;;;1.40;;
10074;SDS011;5076;42.680;23.288;2022-07-19T02:00:08;1.97;;;1.37;;
10074;SDS011;5076;42.680;23.288;2022-07-19T02:02:36;3.07;;;1.67;;
10074;SDS011;5076;42.680;23.288;2022-07-19T02:05:03;2.80;;;1.50;;
10074;SDS011;5076;42.680;23.288;2022-07-19T02:07:29;2.13;;;1.53;;
10074;SDS011;5076;42.680;23.288;2022-07-19T02:09:56;2.27;;;1.70;;
10074;SDS011;5076;42.680;23.288;2022-07-19T02:12:23;1.30;;;1.20;;
10074;SDS011;5076;42.680;23.288;2022-07-19T02:14:51;2.33;;;1.63;;
10074;SDS011;5076;42.680;23.288;2022-07-19T02:17:18;1.43;;;1.30;;
10074;SDS011;5076;42.680;23.288;2022-07-19T02:19:44;1.77;;;1.40;;
10074;SDS011;5076;42.680;23.288;2022-07-19T02:22:11;3.63;;;1.50;;
10074;SDS011;5076;42.680;23.288;2022-07-19T02:24:37;1.83;;;1.70;;
10074;SDS011;5076;42.680;23.288;2022-07-19T02:27:07;2.00;;;1.50;;
10074;SDS011;5076;42.680;23.288;2022-07-19T02:29:34;2.83;;;1.43;;
10074;SDS011;5076;42.680;23.288;2022-07-19T02:32:02;1.97;;;1.20;;
10074;SDS011;5076;42.680;23.288;2022-07-19T02:34:28;2.27;;;1.40;;
10074;SDS011;5076;42.680;23.288;2022-07-19T02:36:55;2.87;;;1.40;;
10074;SDS011;5076;42.680;23.288;2022-07-19T02:39:22;2.17;;;1.47;;
10074;SDS011;5076;42.680;23.288;2022-07-19T02:41:48;2.13;;;1.50;;
10074;SDS011;5076;42.680;23.288;2022-07-19T02:44:15;5.60;;;1.60;;
10074;SDS011;5076;42.680;23.288;2022-07-19T02:46:42;4.10;;;1.60;;
10074;SDS011;5076;42.680;23.288;2022-07-19T02:49:10;2.40;;;1.27;;
10074;SDS011;5076;42.680;23.288;2022-07-19T02:51:36;3.43;;;1.43;;
10074;SDS011;5076;42.680;23.288;2022-07-19T02:54:03;2.57;;;1.80;;
10074;SDS011;5076;42.680;23.288;2022-07-19T02:56:29;2.50;;;1.83;;
10074;SDS011;5076;42.680;23.288;2022-07-19T02:58:56;2.13;;;1.47;;
10074;SDS011;5076;42.680;23.288;2022-07-19T03:01:22;2.73;;;1.60;;
10074;SDS011;5076;42.680;23.288;2022-07-19T03:03:49;1.70;;;1.60;;
10074;SDS011;5076;42.680;23.288;2022-07-19T03:06:17;5.10;;;1.73;;
10074;SDS011;5076;42.680;23.288;2022-07-19T03:08:45;3.27;;;1.70;;
10074;SDS011;5076;42.680;23.288;2022-07-19T03:11:12;2.80;;;1.60;;
10074;SDS011;5076;42.680;23.288;2022-07-19T03:13:38;3.57;;;1.80;;
10074;SDS011;5076;42.680;23.288;2022-07-19T03:16:05;2.93;;;1.93;;
10074;SDS011;5076;42.680;23.288;2022-07-19T03:18:32;2.10;;;1.57;;
10074;SDS011;5076;42.680;23.288;2022-07-19T03:20:59;1.90;;;1.80;;
10074;SDS011;5076;42.680;23.288;2022-07-19T03:23:27;2.30;;;1.77;;
10074;SDS011;5076;42.680;23.288;2022-07-19T03:25:54;4.70;;;1.90;;
10074;SDS011;5076;42.680;23.288;2022-07-19T03:28:20;3.13;;;1.90;;
10074;SDS011;5076;42.680;23.288;2022-07-19T03:30:47;2.97;;;2.20;;
10074;SDS011;5076;42.680;23.288;2022-07-19T03:33:14;3.53;;;2.10;;
10074;SDS011;5076;42.680;23.288;2022-07-19T03:35:41;2.90;;;1.93;;
10074;SDS011;5076;42.680;23.288;2022-07-19T03:38:08;3.60;;;2.27;;
10074;SDS011;5076;42.680;23.288;2022-07-19T03:40:36;4.33;;;2.30;;
10074;SDS011;5076;42.680;23.288;2022-07-19T03:43:02;2.57;;;2.10;;
10074;SDS011;5076;42.680;23.288;2022-07-19T03:45:29;6.40;;;2.23;;
10074;SDS011;5076;42.680;23.288;2022-07-19T03:47:55;4.50;;;1.60;;
10074;SDS011;5076;42.680;23.288;2022-07-19T03:50:22;3.40;;;1.90;;
10074;SDS011;5076;42.680;23.288;2022-07-19T03:52:48;2.93;;;1.90;;
10074;SDS011;5076;42.680;23.288;2022-07-19T03:55:15;1.97;;;1.40;;
10074;SDS011;5076;42.680;23.288;2022-07-19T03:57:43;2.03;;;1.70;;
10074;SDS011;5076;42.680;23.288;2022-07-19T04:00:10;3.53;;;1.97;;
10074;SDS011;5076;42.680;23.288;2022-07-19T04:02:36;4.10;;;1.87;;
10074;SDS011;5076;42.680;23.288;2022-07-19T04:05:03;5.57;;;2.20;;
10074;SDS011;5076;42.680;23.288;2022-07-19T04:07:30;5.53;;;1.97;;
10074;SDS011;5076;42.680;23.288;2022-07-19T04:09:56;3.57;;;1.73;;
10074;SDS011;5076;42.680;23.288;2022-07-19T04:12:23;4.10;;;1.70;;
10074;SDS011;5076;42.680;23.288;2022-07-19T04:14:51;3.73;;;1.63;;
10074;SDS011;5076;42.680;23.288;2022-07-19T04:17:18;2.43;;;1.70;;
10074;SDS011;5076;42.680;23.288;2022-07-19T04:19:45;5.80;;;2.10;;
10074;SDS011;5076;42.680;23.288;2022-07-19T04:22:11;4.07;;;1.90;;
10074;SDS011;5076;42.680;23.288;2022-07-19T04:24:38;17.37;;;3.57;;
10074;SDS011;5076;42.680;23.288;2022-07-19T04:27:05;11.47;;;2.70;;
10074;SDS011;5076;42.680;23.288;2022-07-19T04:29:31;8.83;;;2.40;;
10074;SDS011;5076;42.680;23.288;2022-07-19T04:31:59;3.30;;;1.90;;
10074;SDS011;5076;42.680;23.288;2022-07-19T04:34:26;3.70;;;2.00;;
10074;SDS011;5076;42.680;23.288;2022-07-19T04:36:52;4.13;;;1.90;;
10074;SDS011;5076;42.680;23.288;2022-07-19T04:39:19;3.33;;;2.03;;
10074;SDS011;5076;42.680;23.288;2022-07-19T04:41:45;5.83;;;2.57;;
10074;SDS011;5076;42.680;23.288;2022-07-19T04:44:12;6.60;;;2.80;;
10074;SDS011;5076;42.680;23.288;2022-07-19T04:46:39;4.50;;;2.13;;
10074;SDS011;5076;42.680;23.288;2022-07-19T04:49:07;1.80;;;1.70;;
10074;SDS011;5076;42.680;23.288;2022-07-19T04:51:33;12.20;;;2.47;;
10074;SDS011;5076;42.680;23.288;2022-07-19T04:54:00;2.60;;;1.83;;
10074;SDS011;5076;42.680;23.288;2022-07-19T04:56:26;4.23;;;1.90;;
10074;SDS011;5076;42.680;23.288;2022-07-19T04:58:53;3.23;;;1.83;;
10074;SDS011;5076;42.680;23.288;2022-07-19T05:01:19;1.90;;;1.67;;
10074;SDS011;5076;42.680;23.288;2022-07-19T05:03:46;4.73;;;2.27;;
10074;SDS011;5076;42.680;23.288;2022-07-19T05:06:14;4.23;;;2.00;;
10074;SDS011;5076;42.680;23.288;2022-07-19T05:08:41;10.43;;;2.47;;
10074;SDS011;5076;42.680;23.288;2022-07-19T05:11:07;6.27;;;1.90;;
10074;SDS011;5076;42.680;23.288;2022-07-19T05:13:34;12.03;;;3.20;;
10074;SDS011;5076;42.680;23.288;2022-07-19T05:16:01;5.07;;;2.33;;
10074;SDS011;5076;42.680;23.288;2022-07-19T05:18:27;5.33;;;2.13;;
10074;SDS011;5076;42.680;23.288;2022-07-19T05:20:54;5.17;;;2.47;;
10074;SDS011;5076;42.680;23.288;2022-07-19T05:23:22;4.60;;;2.20;;
10074;SDS011;5076;42.680;23.288;2022-07-19T05:25:48;3.43;;;2.00;;
10074;SDS011;5076;42.680;23.288;2022-07-19T05:28:15;4.43;;;1.90;;
10074;SDS011;5076;42.680;23.288;2022-07-19T05:30:42;3.60;;;2.10;;
10074;SDS011;5076;42.680;23.288;2022-07-19T05:33:08;4.60;;;2.00;;
10074;SDS011;5076;42.680;23.288;2022-07-19T05:35:35;2.93;;;2.13;;
10074;SDS011;5076;42.680;23.288;2022-07-19T05:38:02;3.67;;;1.83;;
10074;SDS011;5076;42.680;23.288;2022-07-19T05:40:30;6.93;;;2.07;;
10074;SDS011;5076;42.680;23.288;2022-07-19T05:42:57;9.07;;;2.53;;
10074;SDS011;5076;42.680;23.288;2022-07-19T05:45:24;4.10;;;2.50;;
10074;SDS011;5076;42.680;23.288;2022-07-19T05:47:59;6.37;;;2.60;;
10074;SDS011;5076;42.680;23.288;2022-07-19T05:50:33;3.57;;;2.43;;
10074;SDS011;5076;42.680;23.288;2022-07-19T05:52:59;3.20;;;2.17;;
10074;SDS011;5076;42.680;23.288;2022-07-19T05:55:26;3.27;;;2.33;;
10074;SDS011;5076;42.680;23.288;2022-07-19T05:57:54;5.80;;;2.60;;
10074;SDS011;5076;42.680;23.288;2022-07-19T06:00:21;4.73;;;2.50;;
10074;SDS011;5076;42.680;23.288;2022-07-19T06:02:47;6.97;;;2.33;;
10074;SDS011;5076;42.680;23.288;2022-07-19T06:05:14;5.33;;;2.27;;
10074;SDS011;5076;42.680;23.288;2022-07-19T06:07:40;3.93;;;2.20;;
10074;SDS011;5076;42.680;23.288;2022-07-19T06:10:07;8.03;;;2.60;;
10074;SDS011;5076;42.680;23.288;2022-07-19T06:12:34;5.57;;;2.30;;
10074;SDS011;5076;42.680;23.288;2022-07-19T06:15:03;6.67;;;2.50;;
10074;SDS011;5076;42.680;23.288;2022-07-19T06:17:29;2.63;;;2.23;;
10074;SDS011;5076;42.680;23.288;2022-07-19T06:19:56;3.63;;;1.87;;
10074;SDS011;5076;42.680;23.288;2022-07-19T06:22:23;4.70;;;2.13;;
10074;SDS011;5076;42.680;23.288;2022-07-19T06:24:49;6.27;;;2.40;;
10074;SDS011;5076;42.680;23.288;2022-07-19T06:27:16;3.33;;;1.70;;
10074;SDS011;5076;42.680;23.288;2022-07-19T06:29:43;2.97;;;1.90;;
10074;SDS011;5076;42.680;23.288;2022-07-19T06:32:11;6.07;;;2.23;;
10074;SDS011;5076;42.680;23.288;2022-07-19T06:34:37;6.27;;;2.13;;
10074;SDS011;5076;42.680;23.288;2022-07-19T06:37:04;4.53;;;1.83;;
10074;SDS011;5076;42.680;23.288;2022-07-19T06:39:31;2.87;;;1.93;;
10074;SDS011;5076;42.680;23.288;2022-07-19T06:41:58;3.20;;;2.00;;
10074;SDS011;5076;42.680;23.288;2022-07-19T06:44:25;6.33;;;2.43;;
10074;SDS011;5076;42.680;23.288;2022-07-19T06:46:51;3.60;;;2.13;;
10074;SDS011;5076;42.680;23.288;2022-07-19T06:49:19;1.93;;;1.60;;
10074;SDS011;5076;42.680;23.288;2022-07-19T06:51:46;6.17;;;1.90;;
10074;SDS011;5076;42.680;23.288;2022-07-19T06:54:12;2.97;;;1.87;;
10074;SDS011;5076;42.680;23.288;2022-07-19T06:56:39;4.60;;;2.23;;
10074;SDS011;5076;42.680;23.288;2022-07-19T06:59:06;6.70;;;2.33;;
10074;SDS011;5076;42.680;23.288;2022-07-19T07:01:32;6.03;;;1.90;;
10074;SDS011;5076;42.680;23.288;2022-07-19T07:03:59;7.93;;;2.10;;
10074;SDS011;5076;42.680;23.288;2022-07-19T07:06:27;3.23;;;1.77;;
10074;SDS011;5076;42.680;23.288;2022-07-19T07:08:53;5.57;;;2.23;;
10074;SDS011;5076;42.680;23.288;2022-07-19T07:11:20;2.13;;;1.40;;
10074;SDS011;5076;42.680;23.288;2022-07-19T07:13:46;3.33;;;2.00;;
10074;SDS011;5076;42.680;23.288;2022-07-19T07:16:13;7.87;;;2.63;;
10074;SDS011;5076;42.680;23.288;2022-07-19T07:18:40;6.43;;;2.00;;
10074;SDS011;5076;42.680;23.288;2022-07-19T07:21:06;2.70;;;1.60;;
10074;SDS011;5076;42.680;23.288;2022-07-19T07:23:34;3.00;;;1.63;;
10074;SDS011;5076;42.680;23.288;2022-07-19T07:26:01;3.17;;;1.70;;
10074;SDS011;5076;42.680;23.288;2022-07-19T07:28:27;7.73;;;2.73;;
10074;SDS011;5076;42.680;23.288;2022-07-19T07:30:54;4.33;;;1.90;;
10074;SDS011;5076;42.680;23.288;2022-07-19T07:33:21;1.70;;;1.40;;
10074;SDS011;5076;42.680;23.288;2022-07-19T07:35:48;2.27;;;1.73;;
10074;SDS011;5076;42.680;23.288;2022-07-19T07:38:14;4.37;;;1.87;;
10074;SDS011;5076;42.680;23.288;2022-07-19T07:40:42;2.83;;;1.70;;
10074;SDS011;5076;42.680;23.288;2022-07-19T07:43:09;3.10;;;1.80;;
10074;SDS011;5076;42.680;23.288;2022-07-19T07:45:35;2.63;;;1.60;;
10074;SDS011;5076;42.680;23.288;2022-07-19T07:48:02;4.73;;;1.87;;
10074;SDS011;5076;42.680;23.288;2022-07-19T07:50:29;4.37;;;1.70;;
10074;SDS011;5076;42.680;23.288;2022-07-19T07:52:55;2.00;;;1.80;;
10074;SDS011;5076;42.680;23.288;2022-07-19T07:55:22;3.33;;;1.80;;
10074;SDS011;5076;42.680;23.288;2022-07-19T07:57:50;3.60;;;1.80;;
10074;SDS011;5076;42.680;23.288;2022-07-19T08:00:17;3.87;;;1.80;;
10074;SDS011;5076;42.680;23.288;2022-07-19T08:02:44;3.87;;;1.90;;
10074;SDS011;5076;42.680;23.288;2022-07-19T08:05:11;2.73;;;1.93;;
10074;SDS011;5076;42.680;23.288;2022-07-19T08:07:38;7.60;;;2.27;;
10074;SDS011;5076;42.680;23.288;2022-07-19T08:10:05;5.93;;;2.07;;
10074;SDS011;5076;42.680;23.288;2022-07-19T08:12:32;1.60;;;1.27;;
10074;SDS011;5076;42.680;23.288;2022-07-19T08:15:01;4.70;;;1.60;;
10074;SDS011;5076;42.680;23.288;2022-07-19T08:17:27;5.27;;;2.33;;
10074;SDS011;5076;42.680;23.288;2022-07-19T08:19:54;4.20;;;1.80;;
10074;SDS011;5076;42.680;23.288;2022-07-19T08:22:20;2.20;;;1.20;;
10074;SDS011;5076;42.680;23.288;2022-07-19T08:24:47;2.23;;;1.70;;
10074;SDS011;5076;42.680;23.288;2022-07-19T08:27:14;2.33;;;1.60;;
10074;SDS011;5076;42.680;23.288;2022-07-19T08:29:40;4.03;;;2.90;;
10074;SDS011;5076;42.680;23.288;2022-07-19T08:32:08;4.13;;;1.90;;
10074;SDS011;5076;42.680;23.288;2022-07-19T08:34:35;7.37;;;2.17;;
10074;SDS011;5076;42.680;23.288;2022-07-19T08:37:01;2.97;;;1.80;;
10074;SDS011;5076;42.680;23.288;2022-07-19T08:39:28;13.63;;;2.93;;
10074;SDS011;5076;42.680;23.288;2022-07-19T08:41:55;2.50;;;1.40;;
10074;SDS011;5076;42.680;23.288;2022-07-19T08:44:22;1.77;;;1.20;;
10074;SDS011;5076;42.680;23.288;2022-07-19T08:46:48;5.37;;;2.00;;
10074;SDS011;5076;42.680;23.288;2022-07-19T08:49:16;4.47;;;1.60;;
10074;SDS011;5076;42.680;23.288;2022-07-19T08:51:43;3.90;;;2.20;;
10074;SDS011;5076;42.680;23.288;2022-07-19T08:54:10;2.30;;;1.90;;
10074;SDS011;5076;42.680;23.288;2022-07-19T08:56:37;2.47;;;1.60;;
10074;SDS011;5076;42.680;23.288;2022-07-19T08:59:21;4.97;;;1.53;;
10074;SDS011;5076;42.680;23.288;2022-07-19T09:01:48;3.53;;;1.60;;
10074;SDS011;5076;42.680;23.288;2022-07-19T09:04:16;2.17;;;1.60;;
10074;SDS011;5076;42.680;23.288;2022-07-19T09:06:45;3.77;;;1.90;;
10074;SDS011;5076;42.680;23.288;2022-07-19T09:09:13;1.77;;;1.33;;
10074;SDS011;5076;42.680;23.288;2022-07-19T09:11:40;2.00;;;1.50;;
10074;SDS011;5076;42.680;23.288;2022-07-19T09:14:14;3.50;;;1.77;;
10074;SDS011;5076;42.680;23.288;2022-07-19T09:16:54;3.17;;;1.77;;
10074;SDS011;5076;42.680;23.288;2022-07-19T09:19:22;3.07;;;1.50;;
10074;SDS011;5076;42.680;23.288;2022-07-19T09:21:57;3.57;;;1.80;;
10074;SDS011;5076;42.680;23.288;2022-07-19T09:24:24;4.37;;;2.00;;
10074;SDS011;5076;42.680;23.288;2022-07-19T09:26:55;5.00;;;1.97;;
10074;SDS011;5076;42.680;23.288;2022-07-19T09:29:22;4.60;;;1.70;;
10074;SDS011;5076;42.680;23.288;2022-07-19T09:32:01;1.67;;;1.30;;
10074;SDS011;5076;42.680;23.288;2022-07-19T09:34:29;8.43;;;2.13;;
10074;SDS011;5076;42.680;23.288;2022-07-19T09:37:10;1.57;;;1.47;;
10074;SDS011;5076;42.680;23.288;2022-07-19T09:39:37;2.50;;;1.50;;
10074;SDS011;5076;42.680;23.288;2022-07-19T09:42:06;2.13;;;1.63;;
10074;SDS011;5076;42.680;23.288;2022-07-19T09:44:33;4.80;;;1.43;;
10074;SDS011;5076;42.680;23.288;2022-07-19T09:46:59;1.50;;;1.30;;
10074;SDS011;5076;42.680;23.288;2022-07-19T09:49:26;3.03;;;1.50;;
10074;SDS011;5076;42.680;23.288;2022-07-19T09:51:53;4.00;;;1.80;;
10074;SDS011;5076;42.680;23.288;2022-07-19T09:54:22;2.07;;;1.67;;
10074;SDS011;5076;42.680;23.288;2022-07-19T09:56:49;2.85;;;1.70;;
10074;SDS011;5076;42.680;23.288;2022-07-19T09:59:16;5.10;;;1.50;;
10074;SDS011;5076;42.680;23.288;2022-07-19T10:01:43;1.73;;;1.30;;
10074;SDS011;5076;42.680;23.288;2022-07-19T10:04:10;4.15;;;1.80;;
10074;SDS011;5076;42.680;23.288;2022-07-19T10:06:38;5.20;;;1.88;;
10074;SDS011;5076;42.680;23.288;2022-07-19T10:09:05;5.95;;;1.85;;
10074;SDS011;5076;42.680;23.288;2022-07-19T10:11:34;4.00;;;1.90;;
10074;SDS011;5076;42.680;23.288;2022-07-19T10:14:01;2.95;;;1.55;;
10074;SDS011;5076;42.680;23.288;2022-07-19T10:16:29;3.13;;;1.70;;
10074;SDS011;5076;42.680;23.288;2022-07-19T10:19:02;4.28;;;1.50;;
10074;SDS011;5076;42.680;23.288;2022-07-19T10:21:31;6.13;;;1.45;;
10074;SDS011;5076;42.680;23.288;2022-07-19T10:23:57;7.43;;;2.15;;
10074;SDS011;5076;42.680;23.288;2022-07-19T10:26:36;2.35;;;1.63;;
10074;SDS011;5076;42.680;23.288;2022-07-19T10:29:06;2.53;;;1.40;;
10074;SDS011;5076;42.680;23.288;2022-07-19T10:31:33;1.48;;;1.38;;
10074;SDS011;5076;42.680;23.288;2022-07-19T10:34:01;2.42;;;1.73;;
10074;SDS011;5076;42.680;23.288;2022-07-19T10:36:32;1.40;;;1.30;;
10074;SDS011;5076;42.680;23.288;2022-07-19T10:44:26;2.13;;;1.55;;
10074;SDS011;5076;42.680;23.288;2022-07-19T10:46:53;3.08;;;1.83;;
10074;SDS011;5076;42.680;23.288;2022-07-19T10:54:42;1.50;;;1.40;;
10074;SDS011;5076;42.680;23.288;2022-07-19T10:57:09;6.88;;;2.58;;
10074;SDS011;5076;42.680;23.288;2022-07-19T10:59:41;7.05;;;2.28;;
10074;SDS011;5076;42.680;23.288;2022-07-19T11:02:08;1.73;;;1.50;;
10074;SDS011;5076;42.680;23.288;2022-07-19T11:04:48;1.73;;;1.50;;
10074;SDS011;5076;42.680;23.288;2022-07-19T11:07:19;2.20;;;1.70;;
10074;SDS011;5076;42.680;23.288;2022-07-19T11:09:47;4.72;;;1.80;;
10074;SDS011;5076;42.680;23.288;2022-07-19T11:12:23;2.17;;;1.98;;
10074;SDS011;5076;42.680;23.288;2022-07-19T11:14:52;3.13;;;1.70;;
10074;SDS011;5076;42.680;23.288;2022-07-19T11:17:18;3.70;;;1.70;;
10074;SDS011;5076;42.680;23.288;2022-07-19T11:20:04;2.00;;;1.73;;
10074;SDS011;5076;42.680;23.288;2022-07-19T11:22:36;2.33;;;1.60;;
10074;SDS011;5076;42.680;23.288;2022-07-19T11:25:03;4.03;;;2.10;;
10074;SDS011;5076;42.680;23.288;2022-07-19T11:27:30;2.10;;;1.50;;
10074;SDS011;5076;42.680;23.288;2022-07-19T11:29:59;2.83;;;1.75;;
10074;SDS011;5076;42.680;23.288;2022-07-19T11:32:26;6.97;;;2.33;;
10074;SDS011;5076;42.680;23.288;2022-07-19T11:34:53;10.07;;;2.35;;
10074;SDS011;5076;42.680;23.288;2022-07-19T11:37:24;5.50;;;2.00;;
10074;SDS011;5076;42.680;23.288;2022-07-19T11:39:51;4.43;;;2.00;;
10074;SDS011;5076;42.680;23.288;2022-07-19T11:42:26;6.18;;;1.88;;
10074;SDS011;5076;42.680;23.288;2022-07-19T11:44:53;3.03;;;1.73;;
10074;SDS011;5076;42.680;23.288;2022-07-19T11:47:21;3.17;;;2.10;;
10074;SDS011;5076;42.680;23.288;2022-07-19T11:49:47;2.40;;;1.50;;
10074;SDS011;5076;42.680;23.288;2022-07-19T11:52:14;4.00;;;1.60;;
10074;SDS011;5076;42.680;23.288;2022-07-19T11:54:40;3.03;;;2.25;;
10074;SDS011;5076;42.680;23.288;2022-07-19T11:57:22;3.38;;;2.05;;
10074;SDS011;5076;42.680;23.288;2022-07-19T11:59:48;2.42;;;1.60;;
10074;SDS011;5076;42.680;23.288;2022-07-19T12:02:15;6.70;;;2.10;;
10074;SDS011;5076;42.680;23.288;2022-07-19T12:04:43;2.75;;;1.30;;
10074;SDS011;5076;42.680;23.288;2022-07-19T12:07:09;2.30;;;1.27;;
10074;SDS011;5076;42.680;23.288;2022-07-19T12:09:36;3.78;;;1.80;;
10074;SDS011;5076;42.680;23.288;2022-07-19T12:12:11;4.75;;;1.63;;
10074;SDS011;5076;42.680;23.288;2022-07-19T12:14:38;4.53;;;1.98;;
10074;SDS011;5076;42.680;23.288;2022-07-19T12:17:09;4.28;;;2.33;;
10074;SDS011;5076;42.680;23.288;2022-07-19T12:19:36;3.67;;;1.52;;
10074;SDS011;5076;42.680;23.288;2022-07-19T12:22:04;1.83;;;1.50;;
10074;SDS011;5076;42.680;23.288;2022-07-19T12:24:32;1.95;;;1.65;;
10074;SDS011;5076;42.680;23.288;2022-07-19T12:27:09;1.58;;;1.40;;
10074;SDS011;5076;42.680;23.288;2022-07-19T12:29:36;1.40;;;1.30;;
10074;SDS011;5076;42.680;23.288;2022-07-19T12:32:03;3.35;;;1.35;;
10074;SDS011;5076;42.680;23.288;2022-07-19T12:34:40;2.95;;;1.70;;
10074;SDS011;5076;42.680;23.288;2022-07-19T12:37:18;3.72;;;1.63;;
10074;SDS011;5076;42.680;23.288;2022-07-19T12:39:55;2.85;;;1.50;;
10074;SDS011;5076;42.680;23.288;2022-07-19T12:42:21;3.20;;;1.92;;
10074;SDS011;5076;42.680;23.288;2022-07-19T12:44:48;4.78;;;1.60;;
10074;SDS011;5076;42.680;23.288;2022-07-19T12:47:15;3.53;;;1.92;;
10074;SDS011;5076;42.680;23.288;2022-07-19T12:49:42;4.78;;;1.88;;
10074;SDS011;5076;42.680;23.288;2022-07-19T12:52:09;3.72;;;1.65;;
10074;SDS011;5076;42.680;23.288;2022-07-19T12:54:37;6.88;;;4.20;;
10074;SDS011;5076;42.680;23.288;2022-07-19T12:57:04;3.65;;;1.67;;
10074;SDS011;5076;42.680;23.288;2022-07-19T12:59:30;4.32;;;1.90;;
10074;SDS011;5076;42.680;23.288;2022-07-19T13:02:07;3.72;;;1.60;;
10074;SDS011;5076;42.680;23.288;2022-07-19T13:04:34;2.58;;;1.60;;
10074;SDS011;5076;42.680;23.288;2022-07-19T13:07:00;4.10;;;1.75;;
10074;SDS011;5076;42.680;23.288;2022-07-19T13:09:27;1.65;;;1.38;;
10074;SDS011;5076;42.680;23.288;2022-07-19T13:11:55;2.63;;;1.50;;
10074;SDS011;5076;42.680;23.288;2022-07-19T13:14:22;2.55;;;1.50;;
10074;SDS011;5076;42.680;23.288;2022-07-19T13:16:49;3.08;;;1.25;;
10074;SDS011;5076;42.680;23.288;2022-07-19T13:19:15;1.85;;;1.63;;
10074;SDS011;5076;42.680;23.288;2022-07-19T13:21:42;3.20;;;1.38;;
10074;SDS011;5076;42.680;23.288;2022-07-19T13:24:09;1.42;;;1.30;;
10074;SDS011;5076;42.680;23.288;2022-07-19T13:26:35;2.63;;;1.50;;
10074;SDS011;5076;42.680;23.288;2022-07-19T13:29:03;1.40;;;1.30;;
10074;SDS011;5076;42.680;23.288;2022-07-19T13:31:30;2.17;;;1.38;;
10074;SDS011;5076;42.680;23.288;2022-07-19T13:33:56;2.70;;;1.70;;
10074;SDS011;5076;42.680;23.288;2022-07-19T13:36:23;2.42;;;1.38;;
10074;SDS011;5076;42.680;23.288;2022-07-19T13:38:50;3.92;;;1.90;;
10074;SDS011;5076;42.680;23.288;2022-07-19T13:41:16;1.88;;;1.30;;
10074;SDS011;5076;42.680;23.288;2022-07-19T13:43:43;3.53;;;1.60;;
10074;SDS011;5076;42.680;23.288;2022-07-19T13:46:12;2.22;;;1.65;;
10074;SDS011;5076;42.680;23.288;2022-07-19T13:48:38;2.30;;;1.50;;
10074;SDS011;5076;42.680;23.288;2022-07-19T13:51:06;1.40;;;1.30;;
10074;SDS011;5076;42.680;23.288;2022-07-19T13:53:33;8.48;;;2.30;;
10074;SDS011;5076;42.680;23.288;2022-07-19T13:56:00;1.98;;;1.20;;
10074;SDS011;5076;42.680;23.288;2022-07-19T13:58:27;3.97;;;1.83;;
10074;SDS011;5076;42.680;23.288;2022-07-19T14:00:53;3.17;;;1.73;;
10074;SDS011;5076;42.680;23.288;2022-07-19T14:03:22;1.60;;;1.30;;
10074;SDS011;5076;42.680;23.288;2022-07-19T14:05:48;3.03;;;1.50;;
10074;SDS011;5076;42.680;23.288;2022-07-19T14:08:15;4.68;;;1.58;;
10074;SDS011;5076;42.680;23.288;2022-07-19T14:10:42;3.47;;;1.73;;
10074;SDS011;5076;42.680;23.288;2022-07-19T14:13:09;2.65;;;1.27;;
10074;SDS011;5076;42.680;23.288;2022-07-19T14:15:37;3.70;;;1.40;;
10074;SDS011;5076;42.680;23.288;2022-07-19T14:18:04;1.83;;;1.33;;
10074;SDS011;5076;42.680;23.288;2022-07-19T14:20:32;1.77;;;1.30;;
10074;SDS011;5076;42.680;23.288;2022-07-19T14:22:59;3.97;;;1.42;;
10074;SDS011;5076;42.680;23.288;2022-07-19T14:25:25;1.23;;;1.02;;
10074;SDS011;5076;42.680;23.288;2022-07-19T14:27:52;1.75;;;1.20;;
10074;SDS011;5076;42.680;23.288;2022-07-19T14:30:19;1.95;;;1.38;;
10074;SDS011;5076;42.680;23.288;2022-07-19T14:32:45;2.78;;;1.20;;
10074;SDS011;5076;42.680;23.288;2022-07-19T14:35:12;6.13;;;1.27;;
10074;SDS011;5076;42.680;23.288;2022-07-19T14:37:42;2.15;;;1.42;;
10074;SDS011;5076;42.680;23.288;2022-07-19T14:40:10;2.33;;;1.20;;
10074;SDS011;5076;42.680;23.288;2022-07-19T14:42:36;6.07;;;2.20;;
10074;SDS011;5076;42.680;23.288;2022-07-19T14:45:03;1.90;;;1.40;;
10074;SDS011;5076;42.680;23.288;2022-07-19T14:47:31;2.53;;;1.10;;
10074;SDS011;5076;42.680;23.288;2022-07-19T14:49:58;6.28;;;1.75;;
10074;SDS011;5076;42.680;23.288;2022-07-19T14:52:24;2.03;;;1.30;;
10074;SDS011;5076;42.680;23.288;2022-07-19T14:54:52;2.85;;;1.20;;
10074;SDS011;5076;42.680;23.288;2022-07-19T14:57:19;2.35;;;1.40;;
10074;SDS011;5076;42.680;23.288;2022-07-19T14:59:46;1.35;;;1.10;;